createdAt,value
2022-08-26T00:00:56.999Z,56.22
2022-08-26T00:02:59.462Z,56.50
2022-08-26T00:05:01.326Z,56.63
2022-08-26T00:07:03.293Z,56.45
2022-08-26T00:09:08.049Z,56.66
2022-08-26T00:11:10.533Z,56.67
2022-08-26T00:13:13.029Z,56.40
2022-08-26T00:15:19.097Z,56.40
2022-08-26T00:17:21.809Z,56.62
2022-08-26T00:19:23.708Z,56.45
2022-08-26T00:21:25.467Z,56.71
2022-08-26T00:23:28.928Z,56.58
2022-08-26T00:25:30.661Z,56.63
2022-08-26T00:27:35.575Z,57.03
2022-08-26T00:29:37.654Z,57.38
2022-08-26T00:31:40.050Z,57.40
2022-08-26T00:33:43.259Z,58.11
2022-08-26T00:35:47.585Z,58.50
2022-08-26T00:37:49.366Z,58.58
2022-08-26T00:39:51.402Z,58.59
2022-08-26T00:41:54.771Z,59.05
2022-08-26T00:43:56.570Z,59.01
2022-08-26T00:46:13.784Z,58.92
2022-08-26T00:48:18.610Z,59.06
2022-08-26T00:50:25.892Z,58.87
2022-08-26T00:52:30.196Z,59.03
2022-08-26T00:54:35.778Z,58.87
2022-08-26T00:56:43.912Z,58.94
2022-08-26T00:58:48.926Z,59.07
2022-08-26T01:00:51.556Z,58.53
2022-08-26T01:02:56.164Z,58.89
2022-08-26T01:05:00.835Z,58.51
2022-08-26T01:07:05.908Z,58.46
2022-08-26T01:09:07.985Z,58.34
2022-08-26T01:11:10.623Z,58.62
2022-08-26T01:13:12.845Z,58.34
2022-08-26T01:15:22.729Z,58.55
2022-08-26T01:17:24.473Z,58.25
2022-08-26T01:19:31.395Z,58.29
2022-08-26T01:21:43.406Z,58.56
2022-08-26T01:23:48.589Z,58.41
2022-08-26T01:25:55.384Z,58.20
2022-08-26T01:28:00.494Z,58.37
2022-08-26T01:30:03.085Z,58.23
2022-08-26T01:32:06.252Z,58.51
2022-08-26T01:34:18.590Z,58.46
2022-08-26T01:36:21.533Z,58.27
2022-08-26T01:38:23.717Z,58.23
2022-08-26T01:40:33.115Z,58.40
2022-08-26T01:42:35.130Z,58.62
2022-08-26T01:44:44.488Z,57.97
2022-08-26T01:46:47.610Z,57.74
2022-08-26T01:48:54.368Z,58.10
2022-08-26T01:50:57.500Z,57.85
2022-08-26T01:53:03.960Z,58.14
2022-08-26T01:55:06.691Z,57.65
2022-08-26T01:57:09.025Z,57.86
2022-08-26T01:59:14.640Z,57.82
2022-08-26T02:01:18.121Z,58.34
2022-08-26T02:03:22.349Z,58.68
2022-08-26T02:05:24.331Z,58.84
2022-08-26T02:07:27.039Z,59.21
2022-08-26T02:09:28.976Z,59.69
2022-08-26T02:11:33.790Z,59.83
2022-08-26T02:13:42.795Z,59.95
2022-08-26T02:15:44.678Z,59.54
2022-08-26T02:17:48.010Z,59.43
2022-08-26T02:19:54.887Z,58.99
2022-08-26T02:21:59.877Z,58.99
2022-08-26T02:24:13.807Z,59.11
2022-08-26T02:26:19.805Z,58.92
2022-08-26T02:28:21.784Z,59.33
2022-08-26T02:30:32.310Z,59.39
2022-08-26T02:32:34.053Z,59.11
2022-08-26T02:34:37.402Z,59.70
2022-08-26T02:36:40.285Z,59.47
2022-08-26T02:38:43.089Z,60.11
2022-08-26T02:40:44.989Z,60.56
2022-08-26T02:42:46.874Z,60.85
2022-08-26T02:44:49.502Z,60.79
2022-08-26T02:46:52.360Z,60.32
2022-08-26T02:48:55.967Z,60.67
2022-08-26T02:51:01.918Z,60.77
2022-08-26T02:53:04.667Z,60.38
2022-08-26T02:55:08.457Z,60.16
2022-08-26T02:57:11.305Z,60.46
2022-08-26T02:59:13.548Z,60.38
2022-08-26T03:01:30.613Z,60.99
2022-08-26T03:03:33.193Z,62.17
2022-08-26T03:05:35.312Z,63.52
2022-08-26T03:07:37.847Z,65.12
2022-08-26T03:09:39.716Z,64.80
2022-08-26T03:11:42.274Z,64.03
2022-08-26T03:13:45.466Z,63.43
2022-08-26T03:15:47.699Z,62.98
2022-08-26T03:17:50.390Z,62.66
2022-08-26T03:19:57.095Z,62.36
2022-08-26T03:21:59.402Z,61.41
2022-08-26T03:24:01.377Z,60.91
2022-08-26T03:26:03.498Z,60.14
2022-08-26T03:28:05.140Z,60.31
2022-08-26T03:30:29.708Z,59.59
2022-08-26T03:32:31.519Z,59.45
2022-08-26T03:34:33.587Z,58.91
2022-08-26T03:36:35.352Z,58.69
2022-08-26T03:38:37.245Z,58.53
2022-08-26T03:40:39.891Z,58.60
2022-08-26T03:42:44.504Z,58.56
2022-08-26T03:44:47.248Z,58.82
2022-08-26T03:46:49.818Z,58.80
2022-08-26T03:48:52.167Z,58.83
2022-08-26T03:50:53.952Z,58.91
2022-08-26T03:52:56.761Z,59.15
2022-08-26T03:54:58.611Z,59.57
2022-08-26T03:57:00.458Z,59.84
2022-08-26T03:59:02.700Z,59.66
2022-08-26T04:01:04.755Z,59.32
2022-08-26T04:03:06.736Z,58.79
2022-08-26T04:05:17.617Z,58.99
2022-08-26T04:07:19.791Z,58.46
2022-08-26T04:09:21.625Z,58.64
2022-08-26T04:11:30.695Z,58.31
2022-08-26T04:13:36.214Z,58.09
2022-08-26T04:15:39.395Z,57.62
2022-08-26T04:17:41.413Z,57.78
2022-08-26T04:19:43.332Z,57.75
2022-08-26T04:21:46.598Z,57.30
2022-08-26T04:23:49.566Z,57.22
2022-08-26T04:25:51.603Z,57.13
2022-08-26T04:27:53.563Z,57.20
2022-08-26T04:29:55.492Z,57.21
2022-08-26T04:31:57.496Z,56.81
2022-08-26T04:33:59.403Z,57.15
2022-08-26T04:36:02.601Z,56.87
2022-08-26T04:38:05.824Z,56.94
2022-08-26T04:40:10.253Z,56.84
2022-08-26T04:42:13.458Z,56.69
2022-08-26T04:44:16.667Z,56.80
2022-08-26T04:46:24.980Z,56.66
2022-08-26T04:48:29.052Z,56.95
2022-08-26T04:50:31.073Z,56.91
2022-08-26T04:52:34.042Z,56.98
2022-08-26T04:54:35.730Z,57.11
2022-08-26T04:56:41.592Z,57.09
2022-08-26T04:58:45.076Z,56.62
2022-08-26T05:00:51.261Z,56.73
2022-08-26T05:02:53.248Z,56.49
2022-08-26T05:04:55.038Z,56.54
2022-08-26T05:07:02.370Z,56.12
2022-08-26T05:09:05.213Z,56.04
2022-08-26T05:11:09.445Z,55.84
2022-08-26T05:13:14.301Z,55.72
2022-08-26T05:15:17.598Z,55.38
2022-08-26T05:17:19.552Z,55.27
2022-08-26T05:19:21.313Z,55.60
2022-08-26T05:21:25.546Z,55.52
2022-08-26T05:23:32.101Z,55.18
2022-08-26T05:25:38.934Z,55.00
2022-08-26T05:27:41.530Z,54.75
2022-08-26T05:29:43.358Z,55.39
2022-08-26T05:31:46.117Z,55.09
2022-08-26T05:33:47.982Z,55.02
2022-08-26T05:35:49.927Z,54.99
2022-08-26T05:37:51.711Z,54.57
2022-08-26T05:39:54.118Z,54.58
2022-08-26T05:41:55.991Z,54.30
2022-08-26T05:44:00.076Z,54.41
2022-08-26T05:46:07.150Z,54.19
2022-08-26T05:48:09.554Z,54.50
2022-08-26T05:50:12.031Z,54.64
2022-08-26T05:52:13.807Z,54.59
2022-08-26T05:54:21.845Z,54.05
2022-08-26T05:56:26.309Z,54.33
2022-08-26T05:58:28.413Z,53.98
2022-08-26T06:00:30.165Z,53.87
2022-08-26T06:02:32.108Z,54.17
2022-08-26T06:04:34.628Z,53.90
2022-08-26T06:06:42.715Z,53.73
2022-08-26T06:08:46.084Z,53.77
2022-08-26T06:10:49.558Z,54.11
2022-08-26T06:12:52.633Z,53.76
2022-08-26T06:14:55.285Z,54.12
2022-08-26T06:16:57.474Z,54.04
2022-08-26T06:19:03.160Z,53.75
2022-08-26T06:21:25.931Z,54.08
2022-08-26T06:23:49.575Z,57.66
2022-08-26T06:25:52.698Z,57.92
2022-08-26T06:27:54.727Z,58.41
2022-08-26T06:29:56.574Z,59.49
2022-08-26T06:31:58.595Z,59.81
2022-08-26T06:34:00.877Z,59.90
2022-08-26T06:36:04.067Z,58.74
2022-08-26T06:38:06.777Z,59.39
2022-08-26T06:40:12.177Z,58.67
2022-08-26T06:42:14.212Z,57.94
2022-08-26T06:44:16.137Z,58.78
2022-08-26T06:46:19.674Z,58.62
2022-08-26T06:48:21.895Z,58.45
2022-08-26T06:50:23.957Z,58.72
2022-08-26T06:52:26.691Z,58.52
2022-08-26T06:54:31.839Z,58.04
2022-08-26T06:56:39.017Z,58.37
2022-08-26T06:58:41.437Z,58.04
2022-08-26T07:00:47.329Z,54.45
2022-08-26T07:02:49.703Z,57.60
2022-08-26T07:04:51.670Z,57.79
2022-08-26T07:06:56.722Z,58.09
2022-08-26T07:09:05.279Z,57.63
2022-08-26T07:11:08.786Z,56.42
2022-08-26T07:13:11.308Z,55.97
2022-08-26T07:15:14.249Z,53.87
2022-08-26T07:17:17.003Z,54.10
2022-08-26T07:19:30.120Z,53.65
2022-08-26T07:21:33.401Z,53.73
2022-08-26T07:23:35.723Z,51.64
2022-08-26T07:25:41.986Z,53.94
2022-08-26T07:27:44.270Z,52.21
2022-08-26T07:29:46.116Z,57.33
2022-08-26T07:31:48.116Z,57.21
2022-08-26T07:33:50.897Z,56.93
2022-08-26T07:35:53.013Z,55.90
2022-08-26T07:37:57.095Z,54.92
2022-08-26T07:39:59.238Z,55.44
2022-08-26T07:42:07.538Z,53.63
2022-08-26T07:44:10.501Z,53.31
2022-08-26T07:46:20.873Z,51.90
2022-08-26T07:48:29.432Z,50.61
2022-08-26T07:50:49.243Z,49.52
2022-08-26T07:52:52.419Z,49.58
2022-08-26T07:55:00.388Z,49.33
2022-08-26T07:57:02.316Z,49.38
2022-08-26T07:59:13.754Z,49.15
2022-08-26T08:01:17.065Z,48.97
2022-08-26T08:03:20.648Z,48.83
2022-08-26T08:05:23.445Z,49.21
2022-08-26T08:07:44.940Z,49.89
2022-08-26T08:09:49.724Z,49.51
2022-08-26T08:11:51.940Z,49.29
2022-08-26T08:13:56.253Z,49.63
2022-08-26T08:15:58.528Z,48.95
2022-08-26T08:18:01.286Z,48.90
2022-08-26T08:20:05.133Z,48.33
2022-08-26T08:22:17.972Z,48.10
2022-08-26T08:24:22.178Z,48.43
2022-08-26T08:26:25.531Z,48.11
2022-08-26T08:28:28.194Z,48.10
2022-08-26T08:30:30.472Z,48.31
2022-08-26T08:32:32.313Z,47.78
2022-08-26T08:34:34.369Z,47.66
2022-08-26T08:36:36.682Z,46.93
2022-08-26T08:38:38.798Z,47.17
2022-08-26T08:40:41.683Z,47.28
2022-08-26T08:42:54.984Z,46.92
2022-08-26T08:44:59.790Z,47.01
2022-08-26T08:47:06.495Z,46.45
2022-08-26T08:49:09.267Z,47.41
2022-08-26T08:51:48.258Z,47.20
2022-08-26T08:53:54.799Z,47.37
2022-08-26T08:56:20.839Z,47.49
2022-08-26T08:58:52.412Z,48.39
2022-08-26T09:01:35.623Z,48.66
2022-08-26T09:03:51.365Z,47.18
2022-08-26T09:05:53.617Z,45.92
2022-08-26T09:08:04.650Z,46.88
2022-08-26T09:10:31.452Z,47.00
2022-08-26T09:12:34.568Z,45.85
2022-08-26T09:14:36.383Z,45.22
2022-08-26T09:16:51.421Z,45.05
2022-08-26T09:19:15.525Z,44.01
2022-08-26T09:21:25.469Z,44.02
2022-08-26T09:23:27.541Z,43.29
2022-08-26T09:25:29.540Z,41.61
2022-08-26T09:27:42.410Z,41.32
2022-08-26T09:29:45.646Z,41.29
2022-08-26T09:31:54.062Z,40.31
2022-08-26T09:34:21.499Z,38.40
2022-08-26T09:36:41.129Z,36.42
2022-08-26T09:38:44.090Z,36.89
2022-08-26T09:41:00.527Z,37.55
2022-08-26T09:43:13.538Z,38.29
2022-08-26T09:45:15.814Z,37.91
2022-08-26T09:47:21.452Z,39.16
2022-08-26T09:49:25.838Z,37.90
2022-08-26T09:51:32.157Z,36.55
2022-08-26T09:53:37.640Z,37.15
2022-08-26T09:55:42.131Z,36.87
2022-08-26T09:57:52.691Z,34.77
2022-08-26T09:59:54.666Z,35.42
2022-08-26T10:02:33.584Z,34.80
2022-08-26T10:04:36.062Z,35.77
2022-08-26T10:07:02.486Z,36.19
2022-08-26T10:09:08.838Z,36.75
2022-08-26T10:11:28.356Z,36.10
2022-08-26T10:14:05.461Z,36.36
2022-08-26T10:16:30.894Z,34.90
2022-08-26T10:18:37.447Z,33.80
2022-08-26T10:20:49.600Z,34.04
2022-08-26T10:23:05.980Z,34.78
2022-08-26T10:25:14.045Z,33.54
2022-08-26T10:27:27.679Z,32.28
2022-08-26T10:29:39.340Z,32.51
2022-08-26T10:31:52.000Z,32.98
2022-08-26T10:33:58.655Z,32.99
2022-08-26T10:36:07.110Z,33.21
2022-08-26T10:38:22.894Z,30.56
2022-08-26T10:40:27.301Z,31.39
2022-08-26T10:42:41.218Z,31.78
2022-08-26T10:44:44.532Z,32.17
2022-08-26T10:46:52.739Z,30.77
2022-08-26T10:49:11.730Z,31.66
2022-08-26T10:51:16.820Z,32.76
2022-08-26T10:53:38.333Z,32.56
2022-08-26T10:56:18.562Z,31.69
2022-08-26T10:58:41.533Z,32.47
2022-08-26T11:01:10.430Z,31.20
2022-08-26T11:03:30.024Z,31.15
2022-08-26T11:05:31.979Z,32.03
2022-08-26T11:07:44.369Z,31.61
2022-08-26T11:09:47.636Z,30.67
2022-08-26T11:11:51.591Z,31.08
2022-08-26T11:14:04.801Z,31.48
2022-08-26T11:16:08.439Z,32.25
2022-08-26T11:18:12.701Z,32.72
2022-08-26T11:20:41.553Z,33.66
2022-08-26T11:22:48.057Z,32.43
2022-08-26T11:24:53.036Z,32.50
2022-08-26T11:26:56.704Z,32.53
2022-08-26T11:28:58.756Z,30.95
2022-08-26T11:33:47.441Z,31.29
2022-08-26T11:35:52.280Z,31.75
2022-08-26T11:37:57.474Z,31.11
2022-08-26T11:40:01.495Z,31.79
2022-08-26T11:42:27.904Z,31.49
2022-08-26T11:44:38.378Z,30.75
2022-08-26T11:46:40.249Z,30.73
2022-08-26T11:48:43.888Z,30.66
2022-08-26T11:50:55.620Z,29.11
2022-08-26T11:53:07.585Z,30.03
2022-08-26T11:55:14.690Z,27.08
2022-08-26T11:57:16.458Z,28.04
2022-08-26T11:59:24.468Z,26.33
2022-08-26T12:01:31.469Z,26.78
2022-08-26T12:03:49.425Z,27.69
2022-08-26T12:05:52.687Z,27.33
2022-08-26T12:07:55.979Z,28.14
2022-08-26T12:10:02.221Z,28.23
2022-08-26T12:12:14.569Z,28.46
2022-08-26T12:14:23.139Z,27.80
2022-08-26T12:16:28.110Z,28.81
2022-08-26T12:18:39.005Z,28.44
2022-08-26T12:20:48.724Z,28.82
2022-08-26T12:22:50.705Z,29.01
2022-08-26T12:24:58.527Z,29.64
2022-08-26T12:27:21.065Z,29.49
2022-08-26T12:29:27.117Z,29.51
2022-08-26T12:31:33.656Z,29.09
2022-08-26T12:33:36.783Z,29.66
2022-08-26T12:35:41.042Z,29.06
2022-08-26T12:37:46.896Z,28.64
2022-08-26T12:39:49.370Z,29.21
2022-08-26T12:41:57.509Z,28.91
2022-08-26T12:43:59.618Z,29.28
2022-08-26T12:46:01.647Z,29.00
2022-08-26T12:48:13.595Z,29.82
2022-08-26T12:50:26.840Z,29.14
2022-08-26T12:52:30.734Z,28.84
2022-08-26T12:54:56.138Z,28.59
2022-08-26T12:57:09.950Z,29.29
2022-08-26T12:59:26.486Z,28.42
2022-08-26T13:01:38.080Z,29.16
2022-08-26T13:03:46.380Z,29.10
2022-08-26T13:05:48.437Z,30.05
2022-08-26T13:08:09.506Z,28.72
2022-08-26T13:10:35.233Z,28.79
2022-08-26T13:12:37.432Z,29.18
2022-08-26T13:14:40.535Z,29.13
2022-08-26T13:16:42.884Z,29.11
2022-08-26T13:18:44.741Z,29.24
2022-08-26T13:20:46.995Z,29.07
2022-08-26T13:22:51.945Z,28.98
2022-08-26T13:25:01.240Z,28.75
2022-08-26T13:27:04.603Z,29.04
2022-08-26T13:29:10.151Z,29.05
2022-08-26T13:31:13.822Z,29.37
2022-08-26T13:33:16.788Z,29.18
2022-08-26T13:35:20.269Z,28.43
2022-08-26T13:37:35.055Z,28.84
2022-08-26T13:39:38.221Z,28.58
2022-08-26T13:41:40.138Z,29.35
2022-08-26T13:43:42.315Z,28.51
2022-08-26T13:45:45.161Z,28.34
2022-08-26T13:47:47.944Z,28.66
2022-08-26T13:49:50.391Z,28.58
2022-08-26T13:51:52.234Z,28.54
2022-08-26T13:53:54.446Z,28.35
2022-08-26T13:55:59.899Z,28.46
2022-08-26T13:58:01.818Z,29.23
2022-08-26T14:00:05.191Z,28.40
2022-08-26T14:02:08.053Z,28.26
2022-08-26T14:04:12.285Z,27.55
2022-08-26T14:06:14.596Z,28.10
2022-08-26T14:08:16.540Z,28.37
2022-08-26T14:10:18.422Z,28.50
2022-08-26T14:12:20.761Z,28.18
2022-08-26T14:14:22.653Z,28.43
2022-08-26T14:16:33.530Z,28.65
2022-08-26T14:18:41.793Z,28.29
2022-08-26T14:20:49.431Z,28.67
2022-08-26T14:23:12.711Z,28.91
2022-08-26T14:25:13.936Z,29.45
2022-08-26T14:27:15.738Z,29.30
2022-08-26T14:29:17.916Z,28.41
2022-08-26T14:31:19.937Z,29.12
2022-08-26T14:33:25.452Z,29.17
2022-08-26T14:35:30.778Z,29.17
2022-08-26T14:37:33.003Z,29.54
2022-08-26T14:39:35.650Z,29.46
2022-08-26T14:41:54.023Z,28.45
2022-08-26T14:44:00.708Z,28.41
2022-08-26T14:46:02.509Z,29.30
2022-08-26T14:48:04.511Z,30.09
2022-08-26T14:50:06.724Z,30.50
2022-08-26T14:52:08.884Z,30.73
2022-08-26T14:54:12.468Z,30.28
2022-08-26T14:56:16.714Z,30.41
2022-08-26T14:58:18.709Z,30.77
2022-08-26T15:00:21.476Z,30.95
2022-08-26T15:02:32.704Z,31.12
2022-08-26T15:04:35.435Z,31.86
2022-08-26T15:06:38.006Z,31.80
2022-08-26T15:08:40.158Z,32.45
2022-08-26T15:10:42.100Z,32.21
2022-08-26T15:12:44.918Z,32.05
2022-08-26T15:14:46.940Z,32.06
2022-08-26T15:16:51.289Z,31.87
2022-08-26T15:18:53.170Z,31.47
2022-08-26T15:20:54.932Z,30.87
2022-08-26T15:22:58.209Z,31.01
2022-08-26T15:25:05.615Z,30.64
2022-08-26T15:27:08.629Z,30.40
2022-08-26T15:29:10.447Z,29.69
2022-08-26T15:31:12.473Z,29.94
2022-08-26T15:33:15.078Z,30.05
2022-08-26T15:35:17.430Z,30.45
2022-08-26T15:37:19.460Z,30.30
2022-08-26T15:39:21.433Z,31.07
2022-08-26T15:41:24.227Z,31.05
2022-08-26T15:43:29.012Z,31.12
2022-08-26T15:45:33.010Z,31.58
2022-08-26T15:47:48.385Z,31.30
2022-08-26T15:49:56.677Z,31.32
2022-08-26T15:52:05.177Z,31.20
2022-08-26T15:54:10.386Z,31.29
2022-08-26T15:56:13.451Z,31.48
2022-08-26T15:58:15.885Z,31.74
2022-08-26T16:00:18.277Z,31.72
2022-08-26T16:02:20.363Z,31.59
2022-08-26T16:04:22.483Z,31.27
2022-08-26T16:06:27.569Z,31.53
2022-08-26T16:08:30.127Z,31.43
2022-08-26T16:10:39.451Z,31.44
2022-08-26T16:12:41.278Z,31.35
2022-08-26T16:14:43.733Z,31.38
2022-08-26T16:16:45.916Z,31.40
2022-08-26T16:18:48.538Z,31.59
2022-08-26T16:21:06.546Z,31.51
2022-08-26T16:23:14.166Z,31.57
2022-08-26T16:25:15.914Z,31.56
2022-08-26T16:27:17.824Z,31.74
2022-08-26T16:29:19.617Z,31.43
2022-08-26T16:31:22.075Z,31.92
2022-08-26T16:33:29.555Z,32.11
2022-08-26T16:35:31.608Z,31.78
2022-08-26T16:37:35.501Z,32.26
2022-08-26T16:39:40.217Z,32.29
2022-08-26T16:41:46.978Z,32.24
2022-08-26T16:43:49.252Z,32.47
2022-08-26T16:45:51.279Z,32.62
2022-08-26T16:47:55.384Z,32.81
2022-08-26T16:49:57.412Z,32.85
2022-08-26T16:51:59.225Z,32.86
2022-08-26T16:54:02.105Z,33.39
2022-08-26T16:56:04.345Z,33.26
2022-08-26T16:58:06.138Z,33.21
2022-08-26T17:00:12.897Z,33.52
2022-08-26T17:02:14.860Z,33.68
2022-08-26T17:04:17.131Z,33.56
2022-08-26T17:06:18.905Z,33.33
2022-08-26T17:08:27.391Z,33.68
2022-08-26T17:10:31.055Z,33.74
2022-08-26T17:12:34.396Z,33.85
2022-08-26T17:14:42.617Z,34.24
2022-08-26T17:16:51.249Z,34.25
2022-08-26T17:18:53.053Z,35.14
2022-08-26T17:20:55.584Z,35.07
2022-08-26T17:22:57.363Z,35.22
2022-08-26T17:24:59.026Z,35.02
2022-08-26T17:27:01.073Z,35.39
2022-08-26T17:29:03.015Z,35.55
2022-08-26T17:31:06.312Z,35.63
2022-08-26T17:33:10.991Z,36.15
2022-08-26T17:35:14.591Z,35.97
2022-08-26T17:37:16.864Z,35.88
2022-08-26T17:39:18.670Z,36.36
2022-08-26T17:41:20.738Z,36.35
2022-08-26T17:43:22.517Z,36.56
2022-08-26T17:45:27.091Z,37.09
2022-08-26T17:47:28.782Z,37.09
2022-08-26T17:49:30.432Z,37.60
2022-08-26T17:51:32.665Z,37.48
2022-08-26T17:53:34.325Z,37.44
2022-08-26T17:55:36.027Z,37.70
2022-08-26T17:57:39.757Z,37.91
2022-08-26T17:59:42.862Z,38.56
2022-08-26T18:01:44.730Z,38.51
2022-08-26T18:03:46.507Z,38.74
2022-08-26T18:05:52.716Z,38.90
2022-08-26T18:07:54.363Z,39.17
2022-08-26T18:09:56.103Z,39.60
2022-08-26T18:11:58.764Z,39.62
2022-08-26T18:14:00.759Z,39.81
2022-08-26T18:16:04.644Z,39.71
2022-08-26T18:18:06.404Z,39.95
2022-08-26T18:20:11.430Z,40.28
2022-08-26T18:22:15.795Z,39.95
2022-08-26T18:24:17.923Z,40.24
2022-08-26T18:26:28.638Z,40.60
2022-08-26T18:28:30.296Z,40.77
2022-08-26T18:30:34.052Z,41.57
2022-08-26T18:32:36.017Z,41.57
2022-08-26T18:34:37.720Z,41.15
2022-08-26T18:36:40.195Z,41.32
2022-08-26T18:38:42.775Z,41.36
2022-08-26T18:40:45.450Z,41.72
2022-08-26T18:42:47.179Z,41.84
2022-08-26T18:44:55.894Z,41.85
2022-08-26T18:46:57.592Z,41.63
2022-08-26T18:48:59.333Z,41.99
2022-08-26T18:51:01.286Z,42.20
2022-08-26T18:53:03.045Z,42.18
2022-08-26T18:55:05.128Z,42.17
2022-08-26T18:57:07.143Z,42.28
2022-08-26T18:59:09.381Z,42.25
2022-08-26T19:01:12.203Z,42.13
2022-08-26T19:03:19.161Z,42.00
2022-08-26T19:05:21.110Z,41.87
2022-08-26T19:07:23.152Z,41.77
2022-08-26T19:09:26.488Z,41.61
2022-08-26T19:11:32.204Z,41.77
2022-08-26T19:13:35.565Z,41.44
2022-08-26T19:15:40.359Z,41.65
2022-08-26T19:17:42.024Z,41.68
2022-08-26T19:19:43.701Z,41.62
2022-08-26T19:21:48.139Z,41.37
2022-08-26T19:23:50.201Z,41.79
2022-08-26T19:25:53.177Z,43.66
2022-08-26T19:27:55.195Z,44.44
2022-08-26T19:29:57.709Z,45.10
2022-08-26T19:31:59.484Z,45.38
2022-08-26T19:34:01.704Z,45.66
2022-08-26T19:36:06.444Z,45.87
2022-08-26T19:38:09.342Z,46.10
2022-08-26T19:40:11.455Z,46.09
2022-08-26T19:42:13.642Z,45.93
2022-08-26T19:44:38.284Z,46.33
2022-08-26T19:46:40.473Z,46.04
2022-08-26T19:48:44.903Z,46.39
2022-08-26T19:50:46.900Z,45.93
2022-08-26T19:52:48.867Z,46.52
2022-08-26T19:54:50.915Z,47.79
2022-08-26T19:56:53.685Z,47.33
2022-08-26T19:58:56.591Z,47.67
2022-08-26T20:00:58.273Z,47.84
2022-08-26T20:03:00.123Z,47.30
2022-08-26T20:05:03.386Z,47.26
2022-08-26T20:07:05.676Z,46.75
2022-08-26T20:09:07.422Z,46.61
2022-08-26T20:11:12.358Z,46.32
2022-08-26T20:13:14.095Z,46.77
2022-08-26T20:15:16.878Z,46.41
2022-08-26T20:17:18.601Z,46.83
2022-08-26T20:19:39.231Z,46.83
2022-08-26T20:21:42.572Z,46.13
2022-08-26T20:23:44.574Z,45.94
2022-08-26T20:25:46.705Z,45.74
2022-08-26T20:27:48.571Z,45.66
2022-08-26T20:29:50.426Z,45.59
2022-08-26T20:31:54.646Z,45.57
2022-08-26T20:33:56.338Z,45.89
2022-08-26T20:35:58.271Z,45.69
2022-08-26T20:38:00.080Z,45.37
2022-08-26T20:40:02.050Z,45.80
2022-08-26T20:42:04.573Z,45.98
2022-08-26T20:44:07.274Z,45.98
2022-08-26T20:46:12.783Z,46.54
2022-08-26T20:48:20.608Z,47.40
2022-08-26T20:50:22.284Z,48.14
2022-08-26T20:52:25.173Z,48.05
2022-08-26T20:54:28.572Z,48.11
2022-08-26T20:56:30.345Z,47.89
2022-08-26T20:58:32.182Z,47.41
2022-08-26T21:00:33.915Z,47.31
2022-08-26T21:02:35.654Z,47.22
2022-08-26T21:04:37.478Z,47.13
2022-08-26T21:06:39.412Z,46.94
2022-08-26T21:08:44.386Z,47.33
2022-08-26T21:10:46.873Z,47.31
2022-08-26T21:12:49.132Z,47.52
2022-08-26T21:14:50.825Z,48.09
2022-08-26T21:16:52.551Z,48.90
2022-08-26T21:18:54.353Z,48.67
2022-08-26T21:20:56.095Z,48.74
2022-08-26T21:22:57.969Z,49.22
2022-08-26T21:24:59.739Z,49.83
2022-08-26T21:27:01.530Z,50.43
2022-08-26T21:29:04.334Z,50.75
2022-08-26T21:31:08.183Z,51.32
2022-08-26T21:33:09.954Z,51.21
2022-08-26T21:35:11.730Z,51.56
2022-08-26T21:37:16.902Z,51.86
2022-08-26T21:39:18.942Z,51.80
2022-08-26T21:41:25.231Z,51.44
2022-08-26T21:43:33.677Z,51.56
2022-08-26T21:45:41.243Z,51.26
2022-08-26T21:47:43.509Z,51.07
2022-08-26T21:49:45.216Z,50.60
2022-08-26T21:51:48.293Z,50.52
2022-08-26T21:53:50.787Z,50.52
2022-08-26T21:55:52.489Z,50.44
2022-08-26T21:57:54.349Z,50.04
2022-08-26T21:59:56.682Z,49.84
2022-08-26T22:01:59.059Z,49.92
2022-08-26T22:04:03.941Z,50.27
2022-08-26T22:06:05.915Z,50.52
2022-08-26T22:08:07.760Z,50.27
2022-08-26T22:10:09.676Z,50.30
2022-08-26T22:12:11.867Z,50.69
2022-08-26T22:14:15.254Z,51.50
2022-08-26T22:16:18.176Z,51.31
2022-08-26T22:18:21.578Z,51.30
2022-08-26T22:20:23.888Z,51.10
2022-08-26T22:22:26.178Z,50.78
2022-08-26T22:24:27.999Z,51.38
2022-08-26T22:26:31.949Z,51.21
2022-08-26T22:28:33.882Z,51.38
2022-08-26T22:30:35.947Z,51.57
2022-08-26T22:32:39.685Z,51.44
2022-08-26T22:34:42.026Z,51.62
2022-08-26T22:36:46.826Z,51.41
2022-08-26T22:38:49.570Z,51.51
2022-08-26T22:40:57.450Z,51.36
2022-08-26T22:43:00.182Z,51.27
2022-08-26T22:45:03.121Z,51.58
2022-08-26T22:47:07.491Z,51.95
2022-08-26T22:49:10.688Z,51.75
2022-08-26T22:51:12.953Z,51.82
2022-08-26T22:53:16.300Z,51.21
2022-08-26T22:55:18.122Z,51.02
2022-08-26T22:57:20.726Z,51.42
2022-08-26T22:59:22.552Z,51.04
2022-08-26T23:01:24.304Z,50.88
2022-08-26T23:03:26.793Z,51.46
2022-08-26T23:05:28.822Z,51.35
2022-08-26T23:07:30.598Z,51.25
2022-08-26T23:09:32.391Z,51.77
2022-08-26T23:11:34.487Z,52.30
2022-08-26T23:13:36.543Z,52.35
2022-08-26T23:15:38.901Z,52.20
2022-08-26T23:17:40.798Z,52.21
2022-08-26T23:19:42.412Z,52.31
2022-08-26T23:21:44.559Z,52.95
2022-08-26T23:23:46.315Z,53.22
2022-08-26T23:25:48.032Z,52.70
2022-08-26T23:27:50.262Z,53.21
2022-08-26T23:29:51.968Z,53.93
2022-08-26T23:31:53.719Z,54.04
2022-08-26T23:34:13.955Z,54.54
2022-08-26T23:36:17.732Z,53.98
2022-08-26T23:38:19.895Z,54.28
2022-08-26T23:40:28.343Z,52.99
2022-08-26T23:42:30.661Z,53.62
2022-08-26T23:44:32.729Z,53.96
2022-08-26T23:46:35.407Z,53.43
2022-08-26T23:48:37.659Z,53.45
2022-08-26T23:50:58.105Z,53.24
2022-08-26T23:53:09.048Z,53.15
2022-08-26T23:55:11.919Z,52.90
2022-08-26T23:57:13.600Z,53.22
2022-08-26T23:59:15.649Z,53.14
